Terminal Aerodrome Forecast
Issued by NWS

Home | Current Version | Previous Version | Graphics & Text | Print | Product List | Glossary Off
Versions: 1 2 3 4 5 6 7 8 9 10 11 12

000
FTUS43 KMPX 200520
TAFRNH
TAF
KRNH 200520Z 2006/2106 14009KT P6SM OVC200 WS020/20045KT
     FM200900 14010KT P6SM SCT050 OVC080
     FM201200 15010KT P6SM OVC050
     FM201600 15010KT 4SM SHRA BR VCTS OVC020CB
      TEMPO 2017/2021 2SM TSRA BR SCT020 BKN030CB
     FM202200 20010KT 3SM -RA BR BKN015
     FM210200 24009KT 5SM -RA BR BKN025
     FM210400 25009KT P6SM SCT025 SCT150=

USA.gov is the U.S. government's official web portal to all federal, state and local government web resources and services.